sensor_id;sensor_type;location;lat;lon;timestamp;pressure;altitude;pressure_sealevel;temperature;humidity
69980;BME280;57318;56.232;43.944;2022-11-15T00:00:52;99159.22;;;-2.99;74.69
69980;BME280;57318;56.232;43.944;2022-11-15T00:03:20;99152.13;;;-2.92;74.58
69980;BME280;57318;56.232;43.944;2022-11-15T00:05:46;99147.53;;;-2.84;74.18
69980;BME280;57318;56.232;43.944;2022-11-15T00:08:12;99144.09;;;-2.84;74.12
69980;BME280;57318;56.232;43.944;2022-11-15T00:10:38;99134.34;;;-2.78;73.83
69980;BME280;57318;56.232;43.944;2022-11-15T00:13:08;99127.34;;;-2.76;73.50
69980;BME280;57318;56.232;43.944;2022-11-15T00:15:36;99136.91;;;-2.76;73.65
69980;BME280;57318;56.232;43.944;2022-11-15T00:18:03;99130.53;;;-2.67;73.49
69980;BME280;57318;56.232;43.944;2022-11-15T00:20:29;99145.31;;;-2.68;73.28
69980;BME280;57318;56.232;43.944;2022-11-15T00:22:55;99138.16;;;-2.61;72.83
69980;BME280;57318;56.232;43.944;2022-11-15T00:25:20;99125.09;;;-2.60;72.56
69980;BME280;57318;56.232;43.944;2022-11-15T00:27:46;99132.72;;;-2.54;72.21
69980;BME280;57318;56.232;43.944;2022-11-15T00:30:12;99132.69;;;-2.52;72.06
69980;BME280;57318;56.232;43.944;2022-11-15T00:32:38;99129.13;;;-2.49;71.89
69980;BME280;57318;56.232;43.944;2022-11-15T00:35:03;99131.78;;;-2.51;71.47
69980;BME280;57318;56.232;43.944;2022-11-15T00:37:29;99134.34;;;-2.49;71.11
69980;BME280;57318;56.232;43.944;2022-11-15T00:39:55;99124.63;;;-2.44;71.48
69980;BME280;57318;56.232;43.944;2022-11-15T00:42:20;99118.38;;;-2.39;70.90
69980;BME280;57318;56.232;43.944;2022-11-15T00:44:46;99120.13;;;-2.39;70.77
69980;BME280;57318;56.232;43.944;2022-11-15T00:47:12;99122.88;;;-2.44;70.99
69980;BME280;57318;56.232;43.944;2022-11-15T00:49:37;99115.00;;;-2.42;71.07
69980;BME280;57318;56.232;43.944;2022-11-15T00:52:03;99108.03;;;-2.40;70.54
69980;BME280;57318;56.232;43.944;2022-11-15T00:54:28;99102.16;;;-2.47;70.89
69980;BME280;57318;56.232;43.944;2022-11-15T00:56:54;99109.31;;;-2.54;70.93
69980;BME280;57318;56.232;43.944;2022-11-15T00:59:20;99101.41;;;-2.50;70.55
69980;BME280;57318;56.232;43.944;2022-11-15T01:01:45;99112.38;;;-2.69;71.48
69980;BME280;57318;56.232;43.944;2022-11-15T01:04:11;99107.97;;;-2.65;71.43
69980;BME280;57318;56.232;43.944;2022-11-15T01:06:37;99110.63;;;-2.67;71.28
69980;BME280;57318;56.232;43.944;2022-11-15T01:09:03;99122.03;;;-2.73;71.19
69980;BME280;57318;56.232;43.944;2022-11-15T01:11:28;99112.56;;;-2.75;70.88
69980;BME280;57318;56.232;43.944;2022-11-15T01:13:54;99109.00;;;-2.71;70.50
69980;BME280;57318;56.232;43.944;2022-11-15T01:16:20;99109.59;;;-2.63;70.31
69980;BME280;57318;56.232;43.944;2022-11-15T01:18:46;99106.25;;;-2.66;70.48
69980;BME280;57318;56.232;43.944;2022-11-15T01:21:15;99114.28;;;-2.74;70.33
69980;BME280;57318;56.232;43.944;2022-11-15T01:23:41;99110.66;;;-2.68;70.13
69980;BME280;57318;56.232;43.944;2022-11-15T01:26:10;99117.44;;;-2.64;69.89
69980;BME280;57318;56.232;43.944;2022-11-15T01:28:37;99117.44;;;-2.64;70.14
69980;BME280;57318;56.232;43.944;2022-11-15T01:31:07;99107.03;;;-2.64;69.68
69980;BME280;57318;56.232;43.944;2022-11-15T01:33:34;99115.91;;;-2.70;69.50
69980;BME280;57318;56.232;43.944;2022-11-15T01:36:06;99115.03;;;-2.70;69.45
69980;BME280;57318;56.232;43.944;2022-11-15T01:38:32;99111.59;;;-2.71;69.52
69980;BME280;57318;56.232;43.944;2022-11-15T01:40:58;99119.50;;;-2.74;69.65
69980;BME280;57318;56.232;43.944;2022-11-15T01:43:28;99119.69;;;-2.80;69.79
69980;BME280;57318;56.232;43.944;2022-11-15T01:46:04;99117.13;;;-2.82;70.09
69980;BME280;57318;56.232;43.944;2022-11-15T01:48:35;99099.78;;;-2.81;69.82
69980;BME280;57318;56.232;43.944;2022-11-15T01:51:04;99114.66;;;-2.86;70.01
69980;BME280;57318;56.232;43.944;2022-11-15T01:53:33;99115.44;;;-2.83;69.61
69980;BME280;57318;56.232;43.944;2022-11-15T01:56:05;99113.03;;;-2.89;70.13
69980;BME280;57318;56.232;43.944;2022-11-15T01:58:34;99106.03;;;-2.87;69.91
69980;BME280;57318;56.232;43.944;2022-11-15T02:01:00;99100.72;;;-2.84;69.48
69980;BME280;57318;56.232;43.944;2022-11-15T02:03:31;99114.75;;;-2.90;70.02
69980;BME280;57318;56.232;43.944;2022-11-15T02:05:59;99102.72;;;-2.92;69.78
69980;BME280;57318;56.232;43.944;2022-11-15T02:08:25;99107.13;;;-2.96;69.81
69980;BME280;57318;56.232;43.944;2022-11-15T02:10:51;99111.44;;;-2.95;69.91
69980;BME280;57318;56.232;43.944;2022-11-15T02:13:17;99107.78;;;-2.87;69.70
69980;BME280;57318;56.232;43.944;2022-11-15T02:18:38;99105.38;;;-2.94;69.69
69980;BME280;57318;56.232;43.944;2022-11-15T02:32:44;99101.84;;;-2.93;69.69
69980;BME280;57318;56.232;43.944;2022-11-15T02:39:17;99099.44;;;-2.99;69.67
69980;BME280;57318;56.232;43.944;2022-11-15T02:41:17;99103.66;;;-2.95;69.93
69980;BME280;57318;56.232;43.944;2022-11-15T02:46:27;99096.13;;;-3.04;70.36
69980;BME280;57318;56.232;43.944;2022-11-15T02:49:14;99101.25;;;-3.01;70.43
69980;BME280;57318;56.232;43.944;2022-11-15T02:51:43;99098.44;;;-2.95;70.22
69980;BME280;57318;56.232;43.944;2022-11-15T02:54:21;99095.09;;;-2.98;70.23
69980;BME280;57318;56.232;43.944;2022-11-15T02:56:48;99102.84;;;-2.97;70.42
69980;BME280;57318;56.232;43.944;2022-11-15T03:07:43;99104.06;;;-2.80;69.99
69980;BME280;57318;56.232;43.944;2022-11-15T03:12:51;99099.78;;;-2.81;70.38
69980;BME280;57318;56.232;43.944;2022-11-15T03:15:44;99106.03;;;-2.87;70.84
69980;BME280;57318;56.232;43.944;2022-11-15T03:18:19;99110.16;;;-2.80;70.80
69980;BME280;57318;56.232;43.944;2022-11-15T03:20:48;99107.75;;;-2.86;70.82
69980;BME280;57318;56.232;43.944;2022-11-15T03:23:14;99103.28;;;-2.82;71.04
69980;BME280;57318;56.232;43.944;2022-11-15T03:25:46;99109.28;;;-2.80;71.26
69980;BME280;57318;56.232;43.944;2022-11-15T03:28:17;99116.31;;;-2.84;71.61
69980;BME280;57318;56.232;43.944;2022-11-15T03:30:45;99110.03;;;-2.77;71.46
69980;BME280;57318;56.232;43.944;2022-11-15T03:33:14;99107.53;;;-2.80;71.62
69980;BME280;57318;56.232;43.944;2022-11-15T03:35:42;99109.22;;;-2.79;71.27
69980;BME280;57318;56.232;43.944;2022-11-15T03:38:25;99111.66;;;-2.73;71.60
69980;BME280;57318;56.232;43.944;2022-11-15T03:41:06;99112.75;;;-2.80;71.83
69980;BME280;57318;56.232;43.944;2022-11-15T03:43:56;99120.59;;;-2.81;72.22
69980;BME280;57318;56.232;43.944;2022-11-15T03:46:30;99126.59;;;-2.79;72.26
69980;BME280;57318;56.232;43.944;2022-11-15T03:49:15;99131.56;;;-2.72;72.16
69980;BME280;57318;56.232;43.944;2022-11-15T03:51:42;99132.41;;;-2.71;71.88
69980;BME280;57318;56.232;43.944;2022-11-15T03:54:09;99128.91;;;-2.70;72.17
69980;BME280;57318;56.232;43.944;2022-11-15T03:56:37;99136.53;;;-2.64;71.89
69980;BME280;57318;56.232;43.944;2022-11-15T03:59:02;99132.81;;;-2.57;71.84
69980;BME280;57318;56.232;43.944;2022-11-15T04:01:28;99134.56;;;-2.57;71.51
69980;BME280;57318;56.232;43.944;2022-11-15T04:03:54;99126.78;;;-2.57;71.79
69980;BME280;57318;56.232;43.944;2022-11-15T04:06:19;99138.84;;;-2.55;71.77
69980;BME280;57318;56.232;43.944;2022-11-15T04:08:45;99147.41;;;-2.51;71.99
69980;BME280;57318;56.232;43.944;2022-11-15T04:11:11;99150.13;;;-2.56;71.82
69980;BME280;57318;56.232;43.944;2022-11-15T04:13:36;99141.53;;;-2.58;72.15
69980;BME280;57318;56.232;43.944;2022-11-15T04:16:02;99142.34;;;-2.56;71.89
69980;BME280;57318;56.232;43.944;2022-11-15T04:18:28;99143.13;;;-2.54;71.91
69980;BME280;57318;56.232;43.944;2022-11-15T04:21:00;99150.78;;;-2.49;72.11
69980;BME280;57318;56.232;43.944;2022-11-15T04:23:45;99146.34;;;-2.45;71.72
69980;BME280;57318;56.232;43.944;2022-11-15T04:26:31;99137.63;;;-2.44;71.67
69980;BME280;57318;56.232;43.944;2022-11-15T04:28:57;99143.03;;;-2.50;71.75
69980;BME280;57318;56.232;43.944;2022-11-15T04:31:41;99138.84;;;-2.55;72.11
69980;BME280;57318;56.232;43.944;2022-11-15T04:34:07;99134.63;;;-2.59;72.26
69980;BME280;57318;56.232;43.944;2022-11-15T04:36:33;99137.41;;;-2.65;72.64
69980;BME280;57318;56.232;43.944;2022-11-15T04:39:17;99149.75;;;-2.72;73.05
69980;BME280;57318;56.232;43.944;2022-11-15T04:41:43;99150.78;;;-2.77;73.37
69980;BME280;57318;56.232;43.944;2022-11-15T04:44:09;99150.78;;;-2.77;73.36
69980;BME280;57318;56.232;43.944;2022-11-15T04:46:35;99150.50;;;-2.68;73.01
69980;BME280;57318;56.232;43.944;2022-11-15T04:49:00;99154.00;;;-2.69;73.23
69980;BME280;57318;56.232;43.944;2022-11-15T04:51:26;99153.22;;;-2.71;73.37
69980;BME280;57318;56.232;43.944;2022-11-15T04:53:52;99153.38;;;-2.77;73.52
69980;BME280;57318;56.232;43.944;2022-11-15T04:56:18;99161.72;;;-2.66;73.42
69980;BME280;57318;56.232;43.944;2022-11-15T04:58:44;99161.38;;;-2.55;73.03
69980;BME280;57318;56.232;43.944;2022-11-15T05:01:11;99159.44;;;-2.48;72.80
69980;BME280;57318;56.232;43.944;2022-11-15T05:03:39;99165.50;;;-2.48;72.95
69980;BME280;57318;56.232;43.944;2022-11-15T05:06:23;99160.25;;;-2.46;72.51
69980;BME280;57318;56.232;43.944;2022-11-15T05:08:49;99167.88;;;-2.40;72.50
69980;BME280;57318;56.232;43.944;2022-11-15T05:11:14;99171.41;;;-2.43;72.22
69980;BME280;57318;56.232;43.944;2022-11-15T05:13:40;99169.56;;;-2.39;72.35
69980;BME280;57318;56.232;43.944;2022-11-15T05:16:06;99172.78;;;-2.31;72.14
69980;BME280;57318;56.232;43.944;2022-11-15T05:18:32;99166.72;;;-2.31;71.73
69980;BME280;57318;56.232;43.944;2022-11-15T05:21:09;99163.97;;;-2.27;71.39
69980;BME280;57318;56.232;43.944;2022-11-15T05:23:34;99170.78;;;-2.23;71.33
69980;BME280;57318;56.232;43.944;2022-11-15T05:26:01;99163.88;;;-2.24;71.20
69980;BME280;57318;56.232;43.944;2022-11-15T05:28:29;99175.19;;;-2.25;71.43
69980;BME280;57318;56.232;43.944;2022-11-15T05:31:10;99181.25;;;-2.24;71.59
69980;BME280;57318;56.232;43.944;2022-11-15T05:33:37;99180.41;;;-2.25;71.83
69980;BME280;57318;56.232;43.944;2022-11-15T05:36:15;99185.09;;;-2.09;71.15
69980;BME280;57318;56.232;43.944;2022-11-15T05:38:43;99175.94;;;-2.21;71.26
69980;BME280;57318;56.232;43.944;2022-11-15T05:41:09;99180.84;;;-2.12;70.64
69980;BME280;57318;56.232;43.944;2022-11-15T05:43:37;99177.00;;;-2.00;70.63
69980;BME280;57318;56.232;43.944;2022-11-15T05:46:04;99194.47;;;-2.04;70.50
69980;BME280;57318;56.232;43.944;2022-11-15T05:48:31;99184.50;;;-1.91;70.14
69980;BME280;57318;56.232;43.944;2022-11-15T05:50:58;99187.75;;;-1.84;70.21
69980;BME280;57318;56.232;43.944;2022-11-15T05:53:25;99193.19;;;-1.65;69.73
69980;BME280;57318;56.232;43.944;2022-11-15T05:55:51;99192.75;;;-1.53;68.63
69980;BME280;57318;56.232;43.944;2022-11-15T05:58:18;99191.13;;;-1.30;68.49
69980;BME280;57318;56.232;43.944;2022-11-15T06:00:44;99196.25;;;-0.34;66.18
69980;BME280;57318;56.232;43.944;2022-11-15T06:03:10;99197.84;;;0.13;63.30
69980;BME280;57318;56.232;43.944;2022-11-15T06:05:36;99188.38;;;0.10;63.26
69980;BME280;57318;56.232;43.944;2022-11-15T06:08:01;99182.34;;;-0.12;63.79
69980;BME280;57318;56.232;43.944;2022-11-15T06:10:27;99184.69;;;-0.06;63.70
69980;BME280;57318;56.232;43.944;2022-11-15T06:13:00;99184.09;;;0.08;63.10
69980;BME280;57318;56.232;43.944;2022-11-15T06:15:26;99187.22;;;0.17;62.81
69980;BME280;57318;56.232;43.944;2022-11-15T06:17:52;99195.31;;;0.11;62.37
69980;BME280;57318;56.232;43.944;2022-11-15T06:20:17;99192.63;;;0.13;62.56
69980;BME280;57318;56.232;43.944;2022-11-15T06:22:43;99192.25;;;0.63;61.86
69980;BME280;57318;56.232;43.944;2022-11-15T06:25:09;99194.47;;;0.52;61.23
69980;BME280;57318;56.232;43.944;2022-11-15T06:27:35;99200.03;;;0.02;62.03
69980;BME280;57318;56.232;43.944;2022-11-15T06:30:00;99199.50;;;-0.07;62.56
69980;BME280;57318;56.232;43.944;2022-11-15T06:32:26;99199.97;;;-0.19;63.50
69980;BME280;57318;56.232;43.944;2022-11-15T06:34:52;99190.28;;;-0.15;63.38
69980;BME280;57318;56.232;43.944;2022-11-15T06:37:17;99197.38;;;-0.19;63.53
69980;BME280;57318;56.232;43.944;2022-11-15T06:39:43;99194.81;;;-0.21;63.45
69980;BME280;57318;56.232;43.944;2022-11-15T06:42:09;99201.88;;;-0.45;63.78
69980;BME280;57318;56.232;43.944;2022-11-15T06:44:34;99201.63;;;-0.39;64.28
69980;BME280;57318;56.232;43.944;2022-11-15T06:47:00;99197.84;;;-0.53;63.94
69980;BME280;57318;56.232;43.944;2022-11-15T06:49:25;99208.34;;;-0.55;64.48
69980;BME280;57318;56.232;43.944;2022-11-15T06:51:51;99199.19;;;-0.65;64.87
69980;BME280;57318;56.232;43.944;2022-11-15T06:54:17;99207.56;;;-0.57;64.77
69980;BME280;57318;56.232;43.944;2022-11-15T06:56:42;99202.41;;;-0.37;64.37
69980;BME280;57318;56.232;43.944;2022-11-15T06:59:08;99206.63;;;-0.32;64.19
69980;BME280;57318;56.232;43.944;2022-11-15T07:01:33;99204.66;;;-0.27;62.78
69980;BME280;57318;56.232;43.944;2022-11-15T07:03:59;99208.69;;;0.86;60.37
69980;BME280;57318;56.232;43.944;2022-11-15T07:06:25;99212.84;;;1.49;58.87
69980;BME280;57318;56.232;43.944;2022-11-15T07:08:50;99213.34;;;1.19;58.87
69980;BME280;57318;56.232;43.944;2022-11-15T07:11:16;99215.91;;;3.00;55.03
69980;BME280;57318;56.232;43.944;2022-11-15T07:13:41;99209.34;;;3.09;52.85
69980;BME280;57318;56.232;43.944;2022-11-15T07:16:09;99200.31;;;2.97;52.80
69980;BME280;57318;56.232;43.944;2022-11-15T07:18:39;99197.16;;;2.39;54.17
69980;BME280;57318;56.232;43.944;2022-11-15T07:21:07;99198.38;;;2.67;53.64
69980;BME280;57318;56.232;43.944;2022-11-15T07:23:35;99194.34;;;2.77;52.90
69980;BME280;57318;56.232;43.944;2022-11-15T07:26:01;99207.50;;;4.37;49.55
69980;BME280;57318;56.232;43.944;2022-11-15T07:28:27;99197.28;;;4.77;47.99
69980;BME280;57318;56.232;43.944;2022-11-15T07:30:52;99200.56;;;4.95;47.61
69980;BME280;57318;56.232;43.944;2022-11-15T07:33:18;99195.34;;;5.65;45.91
69980;BME280;57318;56.232;43.944;2022-11-15T07:35:44;99197.06;;;7.12;42.50
69980;BME280;57318;56.232;43.944;2022-11-15T07:38:11;99204.72;;;7.78;40.60
69980;BME280;57318;56.232;43.944;2022-11-15T07:40:37;99201.41;;;8.36;39.11
69980;BME280;57318;56.232;43.944;2022-11-15T07:43:06;99209.59;;;8.32;38.93
69980;BME280;57318;56.232;43.944;2022-11-15T07:45:32;99208.53;;;7.87;39.04
69980;BME280;57318;56.232;43.944;2022-11-15T07:48:00;99202.44;;;6.98;41.58
69980;BME280;57318;56.232;43.944;2022-11-15T07:50:27;99200.25;;;6.26;42.54
69980;BME280;57318;56.232;43.944;2022-11-15T07:52:56;99206.06;;;5.62;43.89
69980;BME280;57318;56.232;43.944;2022-11-15T07:55:23;99205.53;;;4.85;45.92
69980;BME280;57318;56.232;43.944;2022-11-15T07:57:49;99201.41;;;4.06;46.86
69980;BME280;57318;56.232;43.944;2022-11-15T08:00:15;99205.91;;;3.56;49.00
69980;BME280;57318;56.232;43.944;2022-11-15T08:02:41;99186.81;;;3.20;49.70
69980;BME280;57318;56.232;43.944;2022-11-15T08:05:07;99198.22;;;2.52;51.49
69980;BME280;57318;56.232;43.944;2022-11-15T08:07:33;99200.31;;;2.11;53.09
69980;BME280;57318;56.232;43.944;2022-11-15T08:09:59;99199.88;;;2.20;53.18
69980;BME280;57318;56.232;43.944;2022-11-15T08:12:27;99187.00;;;1.96;53.30
69980;BME280;57318;56.232;43.944;2022-11-15T08:14:56;99197.81;;;1.71;54.12
69980;BME280;57318;56.232;43.944;2022-11-15T08:17:23;99209.34;;;1.50;54.48
69980;BME280;57318;56.232;43.944;2022-11-15T08:19:49;99197.97;;;1.11;56.04
69980;BME280;57318;56.232;43.944;2022-11-15T08:22:14;99194.72;;;1.06;56.56
69980;BME280;57318;56.232;43.944;2022-11-15T08:24:40;99189.84;;;0.98;56.84
69980;BME280;57318;56.232;43.944;2022-11-15T08:27:06;99184.22;;;0.68;57.84
69980;BME280;57318;56.232;43.944;2022-11-15T08:29:43;99180.91;;;0.63;58.03
69980;BME280;57318;56.232;43.944;2022-11-15T08:32:10;99179.13;;;0.65;57.60
69980;BME280;57318;56.232;43.944;2022-11-15T08:34:37;99191.50;;;0.60;58.33
69980;BME280;57318;56.232;43.944;2022-11-15T08:37:02;99187.94;;;0.42;59.19
69980;BME280;57318;56.232;43.944;2022-11-15T08:39:28;99192.97;;;0.26;59.99
69980;BME280;57318;56.232;43.944;2022-11-15T08:41:54;99191.81;;;0.11;60.14
69980;BME280;57318;56.232;43.944;2022-11-15T08:44:19;99192.38;;;0.19;60.44
69980;BME280;57318;56.232;43.944;2022-11-15T08:46:46;99192.13;;;0.25;60.34
69980;BME280;57318;56.232;43.944;2022-11-15T08:49:11;99196.03;;;0.15;60.51
69980;BME280;57318;56.232;43.944;2022-11-15T08:51:37;99196.34;;;0.07;61.17
69980;BME280;57318;56.232;43.944;2022-11-15T08:54:03;99197.03;;;0.11;60.82
69980;BME280;57318;56.232;43.944;2022-11-15T08:56:28;99193.97;;;0.01;61.34
69980;BME280;57318;56.232;43.944;2022-11-15T08:58:54;99189.63;;;0.22;60.98
69980;BME280;57318;56.232;43.944;2022-11-15T09:01:20;99185.84;;;0.29;61.31
69980;BME280;57318;56.232;43.944;2022-11-15T09:03:46;99188.44;;;0.29;60.28
69980;BME280;57318;56.232;43.944;2022-11-15T09:06:12;99192.69;;;0.11;61.33
69980;BME280;57318;56.232;43.944;2022-11-15T09:08:38;99191.81;;;0.11;61.23
69980;BME280;57318;56.232;43.944;2022-11-15T09:11:06;99186.78;;;0.06;62.05
69980;BME280;57318;56.232;43.944;2022-11-15T09:13:32;99188.50;;;0.07;61.42
69980;BME280;57318;56.232;43.944;2022-11-15T09:15:59;99192.13;;;0.03;61.62
69980;BME280;57318;56.232;43.944;2022-11-15T09:18:26;99183.75;;;-0.05;62.25
69980;BME280;57318;56.232;43.944;2022-11-15T09:20:58;99184.63;;;-0.05;61.78
69980;BME280;57318;56.232;43.944;2022-11-15T09:23:24;99198.84;;;-0.12;62.49
69980;BME280;57318;56.232;43.944;2022-11-15T09:25:50;99189.78;;;-0.25;62.77
69980;BME280;57318;56.232;43.944;2022-11-15T09:28:16;99194.63;;;-0.16;62.69
69980;BME280;57318;56.232;43.944;2022-11-15T09:30:42;99190.84;;;-0.29;63.57
69980;BME280;57318;56.232;43.944;2022-11-15T09:33:09;99193.75;;;-0.15;63.15
69980;BME280;57318;56.232;43.944;2022-11-15T09:35:35;99190.34;;;-0.17;62.52
69980;BME280;57318;56.232;43.944;2022-11-15T09:38:01;99194.75;;;-0.19;62.58
69980;BME280;57318;56.232;43.944;2022-11-15T09:40:27;99188.75;;;-0.21;62.81
69980;BME280;57318;56.232;43.944;2022-11-15T09:49:00;99190.97;;;-0.32;62.89
69980;BME280;57318;56.232;43.944;2022-11-15T09:54:10;99196.06;;;-0.29;62.93
69980;BME280;57318;56.232;43.944;2022-11-15T09:56:41;99191.84;;;-0.33;63.46
69980;BME280;57318;56.232;43.944;2022-11-15T10:02:03;99184.78;;;-0.30;63.03
69980;BME280;57318;56.232;43.944;2022-11-15T10:04:36;99189.00;;;-0.27;63.17
69980;BME280;57318;56.232;43.944;2022-11-15T10:09:54;99188.88;;;-0.24;62.48
69980;BME280;57318;56.232;43.944;2022-11-15T10:12:23;99189.13;;;-0.30;62.88
69980;BME280;57318;56.232;43.944;2022-11-15T10:14:50;99192.66;;;-0.31;63.19
69980;BME280;57318;56.232;43.944;2022-11-15T10:20:25;99183.06;;;-0.31;63.31
69980;BME280;57318;56.232;43.944;2022-11-15T10:23:05;99189.78;;;-0.25;62.94
69980;BME280;57318;56.232;43.944;2022-11-15T10:25:33;99186.81;;;-0.16;62.81
69980;BME280;57318;56.232;43.944;2022-11-15T10:30:50;99192.72;;;-0.33;63.36
69980;BME280;57318;56.232;43.944;2022-11-15T10:33:26;99190.06;;;-0.31;63.28
69980;BME280;57318;56.232;43.944;2022-11-15T10:41:31;99198.06;;;-0.36;62.76
69980;BME280;57318;56.232;43.944;2022-11-15T10:44:11;99196.19;;;-0.32;63.05
69980;BME280;57318;56.232;43.944;2022-11-15T10:46:41;99196.06;;;-0.29;63.26
69980;BME280;57318;56.232;43.944;2022-11-15T10:51:56;99198.66;;;-0.29;63.21
69980;BME280;57318;56.232;43.944;2022-11-15T10:56:57;99188.88;;;-0.46;63.09
69980;BME280;57318;56.232;43.944;2022-11-15T10:59:27;99193.56;;;-0.32;62.97
69980;BME280;57318;56.232;43.944;2022-11-15T11:01:54;99190.22;;;-0.36;63.64
69980;BME280;57318;56.232;43.944;2022-11-15T11:04:19;99184.50;;;-0.24;63.16
69980;BME280;57318;56.232;43.944;2022-11-15T11:12:00;99185.50;;;-0.26;63.07
69980;BME280;57318;56.232;43.944;2022-11-15T11:14:28;99190.59;;;-0.23;63.14
69980;BME280;57318;56.232;43.944;2022-11-15T11:25:10;99197.28;;;-0.62;64.09
69980;BME280;57318;56.232;43.944;2022-11-15T11:30:43;99199.91;;;-0.62;63.87
69980;BME280;57318;56.232;43.944;2022-11-15T11:39:02;99201.91;;;-0.68;64.07
69980;BME280;57318;56.232;43.944;2022-11-15T11:41:56;99195.16;;;-0.74;64.41
69980;BME280;57318;56.232;43.944;2022-11-15T11:44:35;99188.66;;;-0.86;64.73
69980;BME280;57318;56.232;43.944;2022-11-15T11:47:11;99206.84;;;-0.84;64.87
69980;BME280;57318;56.232;43.944;2022-11-15T11:49:59;99191.38;;;-0.89;65.37
69980;BME280;57318;56.232;43.944;2022-11-15T11:57:30;99188.25;;;-0.99;65.12
69980;BME280;57318;56.232;43.944;2022-11-15T12:00:25;99189.66;;;-0.90;65.22
69980;BME280;57318;56.232;43.944;2022-11-15T12:03:03;99186.44;;;-0.97;65.25
69980;BME280;57318;56.232;43.944;2022-11-15T12:05:43;99178.38;;;-0.91;65.39
69980;BME280;57318;56.232;43.944;2022-11-15T12:08:35;99187.88;;;-0.88;65.11
69980;BME280;57318;56.232;43.944;2022-11-15T12:13:43;99189.94;;;-0.98;65.50
69980;BME280;57318;56.232;43.944;2022-11-15T12:16:29;99193.19;;;-0.91;64.91
69980;BME280;57318;56.232;43.944;2022-11-15T12:18:59;99187.59;;;-0.82;64.60
69980;BME280;57318;56.232;43.944;2022-11-15T12:24:42;99191.56;;;-0.48;62.61
69980;BME280;57318;56.232;43.944;2022-11-15T12:27:17;99188.66;;;-0.40;62.69
69980;BME280;57318;56.232;43.944;2022-11-15T12:29:48;99194.69;;;-0.62;63.42
69980;BME280;57318;56.232;43.944;2022-11-15T12:34:55;99196.97;;;-0.76;63.42
69980;BME280;57318;56.232;43.944;2022-11-15T12:40:27;99204.41;;;-1.13;64.59
69980;BME280;57318;56.232;43.944;2022-11-15T12:43:35;99194.31;;;-1.22;65.07
69980;BME280;57318;56.232;43.944;2022-11-15T12:46:03;99189.97;;;-1.23;64.72
69980;BME280;57318;56.232;43.944;2022-11-15T12:51:02;99187.47;;;-1.26;64.68
69980;BME280;57318;56.232;43.944;2022-11-15T12:58:47;99184.53;;;-1.40;65.43
69980;BME280;57318;56.232;43.944;2022-11-15T13:06:53;99184.41;;;-1.37;64.65
69980;BME280;57318;56.232;43.944;2022-11-15T13:12:11;99174.97;;;-1.40;64.86
69980;BME280;57318;56.232;43.944;2022-11-15T13:15:00;99180.41;;;-1.46;65.07
69980;BME280;57318;56.232;43.944;2022-11-15T13:17:35;99180.41;;;-1.46;64.76
69980;BME280;57318;56.232;43.944;2022-11-15T13:33:17;99179.53;;;-1.47;64.11
69980;BME280;57318;56.232;43.944;2022-11-15T13:35:49;99183.06;;;-1.48;64.27
69980;BME280;57318;56.232;43.944;2022-11-15T13:38:26;99179.41;;;-1.43;64.14
69980;BME280;57318;56.232;43.944;2022-11-15T13:40:52;99178.31;;;-1.36;63.96
69980;BME280;57318;56.232;43.944;2022-11-15T13:46:18;99174.25;;;-1.45;63.55
69980;BME280;57318;56.232;43.944;2022-11-15T13:48:45;99174.09;;;-1.40;63.37
69980;BME280;57318;56.232;43.944;2022-11-15T13:51:21;99180.19;;;-1.40;63.58
69980;BME280;57318;56.232;43.944;2022-11-15T13:59:54;99180.91;;;-1.36;63.64
69980;BME280;57318;56.232;43.944;2022-11-15T14:02:31;99176.28;;;-1.28;63.50
69980;BME280;57318;56.232;43.944;2022-11-15T14:05:02;99182.44;;;-1.31;63.49
69980;BME280;57318;56.232;43.944;2022-11-15T14:07:29;99175.31;;;-1.25;63.42
69980;BME280;57318;56.232;43.944;2022-11-15T14:09:55;99177.88;;;-1.24;63.53
69980;BME280;57318;56.232;43.944;2022-11-15T14:12:33;99185.47;;;-1.18;63.24
69980;BME280;57318;56.232;43.944;2022-11-15T14:15:19;99176.72;;;-1.17;63.33
69980;BME280;57318;56.232;43.944;2022-11-15T14:17:50;99185.59;;;-1.21;63.56
69980;BME280;57318;56.232;43.944;2022-11-15T14:20:33;99171.50;;;-1.17;63.35
69980;BME280;57318;56.232;43.944;2022-11-15T14:23:19;99176.84;;;-1.20;63.24
69980;BME280;57318;56.232;43.944;2022-11-15T14:25:53;99179.09;;;-1.34;63.35
69980;BME280;57318;56.232;43.944;2022-11-15T14:30:47;99178.97;;;-1.31;63.00
69980;BME280;57318;56.232;43.944;2022-11-15T14:33:33;99170.47;;;-1.36;63.08
69980;BME280;57318;56.232;43.944;2022-11-15T14:36:25;99174.78;;;-1.35;63.34
69980;BME280;57318;56.232;43.944;2022-11-15T14:38:51;99177.50;;;-1.38;63.22
69980;BME280;57318;56.232;43.944;2022-11-15T14:41:22;99166.31;;;-1.42;63.25
69980;BME280;57318;56.232;43.944;2022-11-15T14:43:49;99167.25;;;-1.43;63.31
69980;BME280;57318;56.232;43.944;2022-11-15T14:46:16;99167.94;;;-1.38;63.13
69980;BME280;57318;56.232;43.944;2022-11-15T14:48:41;99166.22;;;-1.39;63.42
69980;BME280;57318;56.232;43.944;2022-11-15T14:51:15;99164.53;;;-1.40;64.87
69980;BME280;57318;56.232;43.944;2022-11-15T14:53:42;99169.31;;;-1.53;66.55
69980;BME280;57318;56.232;43.944;2022-11-15T14:56:08;99162.69;;;-1.61;67.28
69980;BME280;57318;56.232;43.944;2022-11-15T14:58:34;99168.06;;;-1.66;67.58
69980;BME280;57318;56.232;43.944;2022-11-15T15:01:02;99164.66;;;-1.68;67.42
69980;BME280;57318;56.232;43.944;2022-11-15T15:03:28;99167.63;;;-1.79;67.62
69980;BME280;57318;56.232;43.944;2022-11-15T15:05:53;99165.97;;;-1.82;68.56
69980;BME280;57318;56.232;43.944;2022-11-15T15:08:20;99162.41;;;-1.79;67.76
69980;BME280;57318;56.232;43.944;2022-11-15T15:10:45;99151.66;;;-1.95;67.66
69980;BME280;57318;56.232;43.944;2022-11-15T15:13:22;99158.72;;;-1.98;67.28
69980;BME280;57318;56.232;43.944;2022-11-15T15:15:49;99148.13;;;-1.94;67.11
69980;BME280;57318;56.232;43.944;2022-11-15T15:18:15;99155.38;;;-2.02;67.26
69980;BME280;57318;56.232;43.944;2022-11-15T15:20:43;99152.75;;;-2.02;67.73
69980;BME280;57318;56.232;43.944;2022-11-15T15:23:20;99152.75;;;-2.02;68.10
69980;BME280;57318;56.232;43.944;2022-11-15T15:25:47;99160.47;;;-1.99;67.86